Terminal Aerodrome Forecast
Issued by NWS

Home | Current Version | Previous Version | Graphics & Text | Print | Product List | Glossary On
Versions: 1 2 3 4 5 6 7 8 9 10 11 12 13 14
000
FTUS45 KGGW 220533
TAFGDV
TAF
KGDV 220533Z 2206/2306 VRB04KT P6SM FEW200
     FM221900 07006KT P6SM BKN110
     FM222000 02006KT P6SM VCTS SCT080CB
     FM230100 03012KT P6SM -TSRA BKN080CB
     FM230300 05009KT P6SM BKN070 PROB30 2303/2306 -TSRA OVC070CB=

USA.gov is the U.S. government's official web portal to all federal, state and local government web resources and services.